sensor_id;sensor_type;location;lat;lon;timestamp;temperature;humidity
52044;DHT22;38053;53.100;6.078;2024-02-15T00:01:10;10.20;99.90
52044;DHT22;38053;53.100;6.078;2024-02-15T00:03:36;10.20;99.90
52044;DHT22;38053;53.100;6.078;2024-02-15T00:06:02;10.20;99.90
52044;DHT22;38053;53.100;6.078;2024-02-15T00:08:31;10.20;99.90
52044;DHT22;38053;53.100;6.078;2024-02-15T00:10:56;10.30;99.90
52044;DHT22;38053;53.100;6.078;2024-02-15T00:13:22;10.20;99.90
52044;DHT22;38053;53.100;6.078;2024-02-15T00:15:48;10.20;99.90
52044;DHT22;38053;53.100;6.078;2024-02-15T00:18:14;10.30;99.90
52044;DHT22;38053;53.100;6.078;2024-02-15T00:20:43;10.30;99.90
52044;DHT22;38053;53.100;6.078;2024-02-15T00:23:12;10.20;99.90
52044;DHT22;38053;53.100;6.078;2024-02-15T00:25:43;10.30;99.90
52044;DHT22;38053;53.100;6.078;2024-02-15T00:28:11;10.30;99.90
52044;DHT22;38053;53.100;6.078;2024-02-15T00:30:40;10.30;99.90
52044;DHT22;38053;53.100;6.078;2024-02-15T00:33:05;10.30;99.90
52044;DHT22;38053;53.100;6.078;2024-02-15T00:35:34;10.30;99.90
52044;DHT22;38053;53.100;6.078;2024-02-15T00:38:00;10.30;99.90
52044;DHT22;38053;53.100;6.078;2024-02-15T00:40:26;10.40;99.90
52044;DHT22;38053;53.100;6.078;2024-02-15T00:42:51;10.40;99.90
52044;DHT22;38053;53.100;6.078;2024-02-15T00:45:17;10.30;99.90
52044;DHT22;38053;53.100;6.078;2024-02-15T00:47:46;10.30;99.90
52044;DHT22;38053;53.100;6.078;2024-02-15T00:50:12;10.40;99.90
52044;DHT22;38053;53.100;6.078;2024-02-15T00:52:40;10.40;99.90
52044;DHT22;38053;53.100;6.078;2024-02-15T00:55:09;10.40;99.90
52044;DHT22;38053;53.100;6.078;2024-02-15T00:57:41;10.40;99.90
52044;DHT22;38053;53.100;6.078;2024-02-15T01:00:10;10.40;99.90
52044;DHT22;38053;53.100;6.078;2024-02-15T01:02:44;10.40;99.90
52044;DHT22;38053;53.100;6.078;2024-02-15T01:05:11;10.40;99.90
52044;DHT22;38053;53.100;6.078;2024-02-15T01:07:44;10.40;99.90
52044;DHT22;38053;53.100;6.078;2024-02-15T01:10:09;10.40;99.90
52044;DHT22;38053;53.100;6.078;2024-02-15T01:12:35;10.40;99.90
52044;DHT22;38053;53.100;6.078;2024-02-15T01:15:04;10.40;99.90
52044;DHT22;38053;53.100;6.078;2024-02-15T01:17:32;10.40;99.90
52044;DHT22;38053;53.100;6.078;2024-02-15T01:20:00;10.40;99.90
52044;DHT22;38053;53.100;6.078;2024-02-15T01:22:32;10.40;99.90
52044;DHT22;38053;53.100;6.078;2024-02-15T01:24:57;10.40;99.90
52044;DHT22;38053;53.100;6.078;2024-02-15T01:27:23;10.50;99.90
52044;DHT22;38053;53.100;6.078;2024-02-15T01:29:49;10.50;99.90
52044;DHT22;38053;53.100;6.078;2024-02-15T01:32:14;10.40;99.90
52044;DHT22;38053;53.100;6.078;2024-02-15T01:34:40;10.50;99.90
52044;DHT22;38053;53.100;6.078;2024-02-15T01:37:06;10.50;99.90
52044;DHT22;38053;53.100;6.078;2024-02-15T01:39:32;10.50;99.90
52044;DHT22;38053;53.100;6.078;2024-02-15T01:42:12;10.50;99.90
52044;DHT22;38053;53.100;6.078;2024-02-15T01:44:40;10.50;99.90
52044;DHT22;38053;53.100;6.078;2024-02-15T01:47:06;10.50;99.90
52044;DHT22;38053;53.100;6.078;2024-02-15T01:49:37;10.50;99.90
52044;DHT22;38053;53.100;6.078;2024-02-15T01:52:04;10.50;99.90
52044;DHT22;38053;53.100;6.078;2024-02-15T01:54:36;10.50;99.90
52044;DHT22;38053;53.100;6.078;2024-02-15T01:57:04;10.50;99.90
52044;DHT22;38053;53.100;6.078;2024-02-15T01:59:33;10.50;99.90
52044;DHT22;38053;53.100;6.078;2024-02-15T02:06:01;10.50;99.90
52044;DHT22;38053;53.100;6.078;2024-02-15T02:08:29;10.50;99.90
52044;DHT22;38053;53.100;6.078;2024-02-15T02:11:01;10.50;99.90
52044;DHT22;38053;53.100;6.078;2024-02-15T02:13:27;10.50;99.90
52044;DHT22;38053;53.100;6.078;2024-02-15T02:16:00;10.50;99.90
52044;DHT22;38053;53.100;6.078;2024-02-15T02:18:32;10.50;99.90
52044;DHT22;38053;53.100;6.078;2024-02-15T02:21:19;10.50;99.90
52044;DHT22;38053;53.100;6.078;2024-02-15T02:24:04;10.50;99.90
52044;DHT22;38053;53.100;6.078;2024-02-15T02:26:39;10.40;99.90
52044;DHT22;38053;53.100;6.078;2024-02-15T02:29:18;10.50;99.90
52044;DHT22;38053;53.100;6.078;2024-02-15T02:31:44;10.50;99.90
52044;DHT22;38053;53.100;6.078;2024-02-15T02:34:14;10.50;99.90
52044;DHT22;38053;53.100;6.078;2024-02-15T02:36:44;10.50;99.90
52044;DHT22;38053;53.100;6.078;2024-02-15T02:39:09;10.50;99.90
52044;DHT22;38053;53.100;6.078;2024-02-15T02:41:42;10.50;99.90
52044;DHT22;38053;53.100;6.078;2024-02-15T02:44:11;10.50;99.90
52044;DHT22;38053;53.100;6.078;2024-02-15T02:46:45;10.50;99.90
52044;DHT22;38053;53.100;6.078;2024-02-15T02:49:19;10.50;99.90
52044;DHT22;38053;53.100;6.078;2024-02-15T02:51:48;10.50;99.90
52044;DHT22;38053;53.100;6.078;2024-02-15T02:54:16;10.60;99.90
52044;DHT22;38053;53.100;6.078;2024-02-15T02:56:43;10.60;99.90
52044;DHT22;38053;53.100;6.078;2024-02-15T02:59:10;10.60;99.90
52044;DHT22;38053;53.100;6.078;2024-02-15T03:01:46;10.60;99.90
52044;DHT22;38053;53.100;6.078;2024-02-15T03:04:17;10.60;99.90
52044;DHT22;38053;53.100;6.078;2024-02-15T03:06:46;10.60;99.90
52044;DHT22;38053;53.100;6.078;2024-02-15T03:09:22;10.60;99.90
52044;DHT22;38053;53.100;6.078;2024-02-15T03:11:48;10.60;99.90
52044;DHT22;38053;53.100;6.078;2024-02-15T03:14:34;10.60;99.90
52044;DHT22;38053;53.100;6.078;2024-02-15T03:17:03;10.70;99.90
52044;DHT22;38053;53.100;6.078;2024-02-15T03:19:29;10.70;99.90
52044;DHT22;38053;53.100;6.078;2024-02-15T03:21:56;10.70;99.90
52044;DHT22;38053;53.100;6.078;2024-02-15T03:24:22;10.70;99.90
52044;DHT22;38053;53.100;6.078;2024-02-15T03:26:47;10.70;99.90
52044;DHT22;38053;53.100;6.078;2024-02-15T03:29:13;10.70;99.90
52044;DHT22;38053;53.100;6.078;2024-02-15T03:31:38;10.70;99.90
52044;DHT22;38053;53.100;6.078;2024-02-15T03:34:04;10.80;99.90
52044;DHT22;38053;53.100;6.078;2024-02-15T03:36:30;10.80;99.90
52044;DHT22;38053;53.100;6.078;2024-02-15T03:38:55;10.80;99.90
52044;DHT22;38053;53.100;6.078;2024-02-15T03:41:22;10.80;99.90
52044;DHT22;38053;53.100;6.078;2024-02-15T03:43:48;10.80;99.90
52044;DHT22;38053;53.100;6.078;2024-02-15T03:46:13;10.80;99.90
52044;DHT22;38053;53.100;6.078;2024-02-15T03:48:43;10.70;99.90
52044;DHT22;38053;53.100;6.078;2024-02-15T03:51:16;10.80;99.90
52044;DHT22;38053;53.100;6.078;2024-02-15T03:53:44;10.70;99.90
52044;DHT22;38053;53.100;6.078;2024-02-15T03:56:10;10.70;99.90
52044;DHT22;38053;53.100;6.078;2024-02-15T03:58:35;10.70;99.90
52044;DHT22;38053;53.100;6.078;2024-02-15T04:01:03;10.70;99.90
52044;DHT22;38053;53.100;6.078;2024-02-15T04:03:32;10.70;99.90
52044;DHT22;38053;53.100;6.078;2024-02-15T04:05:59;10.70;99.90
52044;DHT22;38053;53.100;6.078;2024-02-15T04:08:28;10.70;99.90
52044;DHT22;38053;53.100;6.078;2024-02-15T04:10:54;10.70;99.90
52044;DHT22;38053;53.100;6.078;2024-02-15T04:13:20;10.70;99.90
52044;DHT22;38053;53.100;6.078;2024-02-15T04:15:45;10.70;99.90
52044;DHT22;38053;53.100;6.078;2024-02-15T04:18:15;10.70;99.90
52044;DHT22;38053;53.100;6.078;2024-02-15T04:20:43;10.70;99.90
52044;DHT22;38053;53.100;6.078;2024-02-15T04:23:13;10.80;99.90
52044;DHT22;38053;53.100;6.078;2024-02-15T04:25:39;10.70;99.90
52044;DHT22;38053;53.100;6.078;2024-02-15T04:28:06;10.80;99.90
52044;DHT22;38053;53.100;6.078;2024-02-15T04:30:34;10.80;99.90
52044;DHT22;38053;53.100;6.078;2024-02-15T04:33:00;10.90;99.90
52044;DHT22;38053;53.100;6.078;2024-02-15T04:35:30;10.90;99.90
52044;DHT22;38053;53.100;6.078;2024-02-15T04:37:56;10.80;99.90
52044;DHT22;38053;53.100;6.078;2024-02-15T04:40:21;10.90;99.90
52044;DHT22;38053;53.100;6.078;2024-02-15T04:42:47;10.90;99.90
52044;DHT22;38053;53.100;6.078;2024-02-15T04:45:13;10.90;99.90
52044;DHT22;38053;53.100;6.078;2024-02-15T04:47:41;10.90;99.90
52044;DHT22;38053;53.100;6.078;2024-02-15T04:50:10;10.90;99.90
52044;DHT22;38053;53.100;6.078;2024-02-15T04:52:36;10.90;99.90
52044;DHT22;38053;53.100;6.078;2024-02-15T04:55:02;10.90;99.90
52044;DHT22;38053;53.100;6.078;2024-02-15T04:57:33;10.90;99.90
52044;DHT22;38053;53.100;6.078;2024-02-15T05:00:05;10.90;99.90
52044;DHT22;38053;53.100;6.078;2024-02-15T05:02:37;11.00;99.90
52044;DHT22;38053;53.100;6.078;2024-02-15T05:05:07;10.90;99.90
52044;DHT22;38053;53.100;6.078;2024-02-15T05:07:34;11.00;99.90
52044;DHT22;38053;53.100;6.078;2024-02-15T05:10:00;11.00;99.90
52044;DHT22;38053;53.100;6.078;2024-02-15T05:12:27;11.00;99.90
52044;DHT22;38053;53.100;6.078;2024-02-15T05:14:53;11.00;99.90
52044;DHT22;38053;53.100;6.078;2024-02-15T05:17:19;11.00;99.90
52044;DHT22;38053;53.100;6.078;2024-02-15T05:19:44;11.00;99.90
52044;DHT22;38053;53.100;6.078;2024-02-15T05:22:10;11.00;99.90
52044;DHT22;38053;53.100;6.078;2024-02-15T05:24:39;11.00;99.90
52044;DHT22;38053;53.100;6.078;2024-02-15T05:27:14;11.00;99.90
52044;DHT22;38053;53.100;6.078;2024-02-15T05:29:39;11.10;99.90
52044;DHT22;38053;53.100;6.078;2024-02-15T05:32:08;11.00;99.90
52044;DHT22;38053;53.100;6.078;2024-02-15T05:34:34;11.10;99.90
52044;DHT22;38053;53.100;6.078;2024-02-15T05:37:05;11.10;99.90
52044;DHT22;38053;53.100;6.078;2024-02-15T05:39:32;11.10;99.90
52044;DHT22;38053;53.100;6.078;2024-02-15T05:41:57;11.10;99.90
52044;DHT22;38053;53.100;6.078;2024-02-15T05:44:26;11.10;99.90
52044;DHT22;38053;53.100;6.078;2024-02-15T05:46:52;11.10;99.90
52044;DHT22;38053;53.100;6.078;2024-02-15T05:49:17;11.20;99.90
52044;DHT22;38053;53.100;6.078;2024-02-15T05:51:43;11.10;99.90
52044;DHT22;38053;53.100;6.078;2024-02-15T05:54:09;11.10;99.90
52044;DHT22;38053;53.100;6.078;2024-02-15T05:56:35;11.10;99.90
52044;DHT22;38053;53.100;6.078;2024-02-15T05:59:02;11.10;99.90
52044;DHT22;38053;53.100;6.078;2024-02-15T06:01:41;11.10;99.90
52044;DHT22;38053;53.100;6.078;2024-02-15T06:04:07;11.20;99.90
52044;DHT22;38053;53.100;6.078;2024-02-15T06:06:55;11.10;99.90
52044;DHT22;38053;53.100;6.078;2024-02-15T06:09:24;11.20;99.90
52044;DHT22;38053;53.100;6.078;2024-02-15T06:11:52;11.20;99.90
52044;DHT22;38053;53.100;6.078;2024-02-15T06:14:20;11.20;99.90
52044;DHT22;38053;53.100;6.078;2024-02-15T06:16:46;11.20;99.90
52044;DHT22;38053;53.100;6.078;2024-02-15T06:19:12;11.20;99.90
52044;DHT22;38053;53.100;6.078;2024-02-15T06:21:45;11.20;99.90
52044;DHT22;38053;53.100;6.078;2024-02-15T06:24:12;11.20;99.90
52044;DHT22;38053;53.100;6.078;2024-02-15T06:26:37;11.20;99.90
52044;DHT22;38053;53.100;6.078;2024-02-15T06:29:10;11.20;99.90
52044;DHT22;38053;53.100;6.078;2024-02-15T06:31:55;11.20;99.90
52044;DHT22;38053;53.100;6.078;2024-02-15T06:34:39;11.20;99.90
52044;DHT22;38053;53.100;6.078;2024-02-15T06:37:35;11.20;99.90
52044;DHT22;38053;53.100;6.078;2024-02-15T06:40:23;11.20;99.90
52044;DHT22;38053;53.100;6.078;2024-02-15T06:42:49;11.20;99.90
52044;DHT22;38053;53.100;6.078;2024-02-15T06:45:14;11.20;99.90
52044;DHT22;38053;53.100;6.078;2024-02-15T06:47:42;11.20;99.90
52044;DHT22;38053;53.100;6.078;2024-02-15T06:50:27;11.20;99.90
52044;DHT22;38053;53.100;6.078;2024-02-15T06:52:55;11.10;99.90
52044;DHT22;38053;53.100;6.078;2024-02-15T06:55:21;11.20;99.90
52044;DHT22;38053;53.100;6.078;2024-02-15T06:57:47;11.10;99.90
52044;DHT22;38053;53.100;6.078;2024-02-15T07:00:13;11.10;99.90
52044;DHT22;38053;53.100;6.078;2024-02-15T07:02:43;11.20;99.90
52044;DHT22;38053;53.100;6.078;2024-02-15T07:05:09;11.10;99.90
52044;DHT22;38053;53.100;6.078;2024-02-15T07:07:36;11.20;99.90
52044;DHT22;38053;53.100;6.078;2024-02-15T07:10:01;11.20;99.90
52044;DHT22;38053;53.100;6.078;2024-02-15T07:12:32;11.20;99.90
52044;DHT22;38053;53.100;6.078;2024-02-15T07:14:57;11.20;99.90
52044;DHT22;38053;53.100;6.078;2024-02-15T07:17:23;11.20;99.90
52044;DHT22;38053;53.100;6.078;2024-02-15T07:19:54;11.20;99.90
52044;DHT22;38053;53.100;6.078;2024-02-15T07:22:20;11.20;99.90
52044;DHT22;38053;53.100;6.078;2024-02-15T07:24:50;11.20;99.90
52044;DHT22;38053;53.100;6.078;2024-02-15T07:27:15;11.20;99.90
52044;DHT22;38053;53.100;6.078;2024-02-15T07:30:02;11.20;99.90
52044;DHT22;38053;53.100;6.078;2024-02-15T07:32:30;11.20;99.90
52044;DHT22;38053;53.100;6.078;2024-02-15T07:34:57;11.20;99.90
52044;DHT22;38053;53.100;6.078;2024-02-15T07:41:24;11.20;99.90
52044;DHT22;38053;53.100;6.078;2024-02-15T07:43:51;11.20;99.90
52044;DHT22;38053;53.100;6.078;2024-02-15T07:46:18;11.20;99.90
52044;DHT22;38053;53.100;6.078;2024-02-15T07:48:44;11.20;99.90
52044;DHT22;38053;53.100;6.078;2024-02-15T07:51:15;11.20;99.90
52044;DHT22;38053;53.100;6.078;2024-02-15T07:53:41;11.30;99.90
52044;DHT22;38053;53.100;6.078;2024-02-15T07:56:10;11.20;99.90
52044;DHT22;38053;53.100;6.078;2024-02-15T07:58:43;11.20;99.90
52044;DHT22;38053;53.100;6.078;2024-02-15T08:01:13;11.30;99.90
52044;DHT22;38053;53.100;6.078;2024-02-15T08:03:39;11.30;99.90
52044;DHT22;38053;53.100;6.078;2024-02-15T08:06:29;11.30;99.90
52044;DHT22;38053;53.100;6.078;2024-02-15T08:08:58;11.30;99.90
52044;DHT22;38053;53.100;6.078;2024-02-15T08:11:27;11.30;99.90
52044;DHT22;38053;53.100;6.078;2024-02-15T08:13:52;11.30;99.90
52044;DHT22;38053;53.100;6.078;2024-02-15T08:16:24;11.30;99.90
52044;DHT22;38053;53.100;6.078;2024-02-15T08:18:53;11.30;99.90
52044;DHT22;38053;53.100;6.078;2024-02-15T08:21:27;11.30;99.90
52044;DHT22;38053;53.100;6.078;2024-02-15T08:24:01;11.30;99.90
52044;DHT22;38053;53.100;6.078;2024-02-15T08:26:40;11.30;99.90
52044;DHT22;38053;53.100;6.078;2024-02-15T08:29:13;11.30;99.90
52044;DHT22;38053;53.100;6.078;2024-02-15T08:31:42;11.30;99.90
52044;DHT22;38053;53.100;6.078;2024-02-15T08:34:11;11.30;99.90
52044;DHT22;38053;53.100;6.078;2024-02-15T08:36:39;11.30;99.90
52044;DHT22;38053;53.100;6.078;2024-02-15T08:39:05;11.30;99.90
52044;DHT22;38053;53.100;6.078;2024-02-15T08:41:31;11.30;99.90
52044;DHT22;38053;53.100;6.078;2024-02-15T08:43:56;11.30;99.90
52044;DHT22;38053;53.100;6.078;2024-02-15T08:46:23;11.30;99.90
52044;DHT22;38053;53.100;6.078;2024-02-15T08:48:50;11.30;99.90
52044;DHT22;38053;53.100;6.078;2024-02-15T08:51:17;11.30;99.90
52044;DHT22;38053;53.100;6.078;2024-02-15T08:53:46;11.30;99.90
52044;DHT22;38053;53.100;6.078;2024-02-15T08:56:14;11.40;99.90
52044;DHT22;38053;53.100;6.078;2024-02-15T08:58:40;11.40;99.90
52044;DHT22;38053;53.100;6.078;2024-02-15T09:01:06;11.40;99.90
52044;DHT22;38053;53.100;6.078;2024-02-15T09:03:33;11.40;99.90
52044;DHT22;38053;53.100;6.078;2024-02-15T09:05:59;11.40;99.90
52044;DHT22;38053;53.100;6.078;2024-02-15T09:08:28;11.40;99.90
52044;DHT22;38053;53.100;6.078;2024-02-15T09:10:55;11.40;99.90
52044;DHT22;38053;53.100;6.078;2024-02-15T09:13:21;11.50;99.90
52044;DHT22;38053;53.100;6.078;2024-02-15T09:15:48;11.50;99.90
52044;DHT22;38053;53.100;6.078;2024-02-15T09:18:13;11.50;99.90
52044;DHT22;38053;53.100;6.078;2024-02-15T09:20:39;11.50;99.90
52044;DHT22;38053;53.100;6.078;2024-02-15T09:23:10;11.60;99.90
52044;DHT22;38053;53.100;6.078;2024-02-15T09:25:41;11.60;99.90
52044;DHT22;38053;53.100;6.078;2024-02-15T09:28:10;11.60;99.90
52044;DHT22;38053;53.100;6.078;2024-02-15T09:30:35;11.60;99.90
52044;DHT22;38053;53.100;6.078;2024-02-15T09:33:02;11.60;99.90
52044;DHT22;38053;53.100;6.078;2024-02-15T09:35:31;11.70;99.90
52044;DHT22;38053;53.100;6.078;2024-02-15T09:38:03;11.70;99.90
52044;DHT22;38053;53.100;6.078;2024-02-15T09:40:28;11.70;99.90
52044;DHT22;38053;53.100;6.078;2024-02-15T09:43:02;11.80;99.90
52044;DHT22;38053;53.100;6.078;2024-02-15T09:45:40;11.70;99.90
52044;DHT22;38053;53.100;6.078;2024-02-15T09:48:06;11.80;99.90
52044;DHT22;38053;53.100;6.078;2024-02-15T09:50:36;11.80;99.90
52044;DHT22;38053;53.100;6.078;2024-02-15T09:53:09;11.80;99.90
52044;DHT22;38053;53.100;6.078;2024-02-15T09:55:43;11.80;99.90
52044;DHT22;38053;53.100;6.078;2024-02-15T09:58:12;11.90;99.90
52044;DHT22;38053;53.100;6.078;2024-02-15T10:01:03;11.90;99.90
52044;DHT22;38053;53.100;6.078;2024-02-15T10:03:34;11.90;99.90
52044;DHT22;38053;53.100;6.078;2024-02-15T10:06:02;11.90;99.90
52044;DHT22;38053;53.100;6.078;2024-02-15T10:08:31;11.80;99.90
52044;DHT22;38053;53.100;6.078;2024-02-15T10:11:11;11.90;99.90
52044;DHT22;38053;53.100;6.078;2024-02-15T10:13:37;12.00;99.90
52044;DHT22;38053;53.100;6.078;2024-02-15T10:16:17;11.90;99.90
52044;DHT22;38053;53.100;6.078;2024-02-15T10:18:49;12.00;99.90
52044;DHT22;38053;53.100;6.078;2024-02-15T10:21:24;12.10;99.90
52044;DHT22;38053;53.100;6.078;2024-02-15T10:24:09;12.10;99.90
52044;DHT22;38053;53.100;6.078;2024-02-15T10:26:35;12.10;99.90
52044;DHT22;38053;53.100;6.078;2024-02-15T10:29:11;12.20;99.90
52044;DHT22;38053;53.100;6.078;2024-02-15T10:31:54;12.20;99.90
52044;DHT22;38053;53.100;6.078;2024-02-15T10:34:23;12.20;99.90
52044;DHT22;38053;53.100;6.078;2024-02-15T10:36:54;12.10;99.90
52044;DHT22;38053;53.100;6.078;2024-02-15T10:39:23;12.10;99.90
52044;DHT22;38053;53.100;6.078;2024-02-15T10:41:54;12.10;99.90
52044;DHT22;38053;53.100;6.078;2024-02-15T10:44:21;12.10;99.90
52044;DHT22;38053;53.100;6.078;2024-02-15T10:46:49;12.20;99.90
52044;DHT22;38053;53.100;6.078;2024-02-15T10:49:23;12.20;99.90
52044;DHT22;38053;53.100;6.078;2024-02-15T10:51:56;12.20;99.90
52044;DHT22;38053;53.100;6.078;2024-02-15T10:54:40;12.20;99.90
52044;DHT22;38053;53.100;6.078;2024-02-15T10:57:10;12.30;99.90
52044;DHT22;38053;53.100;6.078;2024-02-15T10:59:37;12.30;99.90
52044;DHT22;38053;53.100;6.078;2024-02-15T11:02:34;12.30;99.90
52044;DHT22;38053;53.100;6.078;2024-02-15T11:05:18;12.30;99.90
52044;DHT22;38053;53.100;6.078;2024-02-15T11:07:50;12.30;99.90
52044;DHT22;38053;53.100;6.078;2024-02-15T11:10:17;12.30;99.90
52044;DHT22;38053;53.100;6.078;2024-02-15T11:12:43;12.30;99.90
52044;DHT22;38053;53.100;6.078;2024-02-15T11:15:09;12.30;99.90
52044;DHT22;38053;53.100;6.078;2024-02-15T11:20:03;12.30;99.90
52044;DHT22;38053;53.100;6.078;2024-02-15T11:22:35;12.30;99.90
52044;DHT22;38053;53.100;6.078;2024-02-15T11:25:05;12.40;99.90
52044;DHT22;38053;53.100;6.078;2024-02-15T11:27:35;12.40;99.90
52044;DHT22;38053;53.100;6.078;2024-02-15T11:30:04;12.40;99.90
52044;DHT22;38053;53.100;6.078;2024-02-15T11:32:50;12.40;99.90
52044;DHT22;38053;53.100;6.078;2024-02-15T11:35:23;12.40;99.90
52044;DHT22;38053;53.100;6.078;2024-02-15T11:43:10;12.40;99.90
52044;DHT22;38053;53.100;6.078;2024-02-15T11:46:00;12.40;99.90
52044;DHT22;38053;53.100;6.078;2024-02-15T11:48:35;12.40;99.90
52044;DHT22;38053;53.100;6.078;2024-02-15T11:51:10;12.40;99.90
52044;DHT22;38053;53.100;6.078;2024-02-15T11:53:43;12.40;99.90
52044;DHT22;38053;53.100;6.078;2024-02-15T11:56:11;12.40;99.90
52044;DHT22;38053;53.100;6.078;2024-02-15T11:59:10;12.30;99.90
52044;DHT22;38053;53.100;6.078;2024-02-15T12:01:44;12.30;99.90
52044;DHT22;38053;53.100;6.078;2024-02-15T12:04:32;12.30;99.90
52044;DHT22;38053;53.100;6.078;2024-02-15T12:07:16;12.30;99.90
52044;DHT22;38053;53.100;6.078;2024-02-15T12:10:01;12.30;99.90
52044;DHT22;38053;53.100;6.078;2024-02-15T12:16:21;12.30;99.90
52044;DHT22;38053;53.100;6.078;2024-02-15T12:26:34;12.30;99.90
52044;DHT22;38053;53.100;6.078;2024-02-15T12:29:01;12.30;99.90
52044;DHT22;38053;53.100;6.078;2024-02-15T12:31:27;12.30;99.90
52044;DHT22;38053;53.100;6.078;2024-02-15T12:34:03;12.30;99.90
52044;DHT22;38053;53.100;6.078;2024-02-15T12:36:36;12.30;99.90
52044;DHT22;38053;53.100;6.078;2024-02-15T12:39:06;12.30;99.90
52044;DHT22;38053;53.100;6.078;2024-02-15T12:41:49;12.30;99.90
52044;DHT22;38053;53.100;6.078;2024-02-15T12:44:18;12.30;99.90
52044;DHT22;38053;53.100;6.078;2024-02-15T12:46:54;12.30;99.90
52044;DHT22;38053;53.100;6.078;2024-02-15T12:51:53;12.30;99.90
52044;DHT22;38053;53.100;6.078;2024-02-15T12:54:35;12.30;99.90
52044;DHT22;38053;53.100;6.078;2024-02-15T12:57:14;12.30;99.90
52044;DHT22;38053;53.100;6.078;2024-02-15T12:59:40;12.30;99.90
52044;DHT22;38053;53.100;6.078;2024-02-15T13:02:10;12.30;99.90
52044;DHT22;38053;53.100;6.078;2024-02-15T13:04:43;12.30;99.90
52044;DHT22;38053;53.100;6.078;2024-02-15T13:07:08;12.30;99.90
52044;DHT22;38053;53.100;6.078;2024-02-15T13:09:34;12.30;99.90
52044;DHT22;38053;53.100;6.078;2024-02-15T13:12:03;12.30;99.90
52044;DHT22;38053;53.100;6.078;2024-02-15T13:14:29;12.30;99.90
52044;DHT22;38053;53.100;6.078;2024-02-15T13:16:55;12.30;99.90
52044;DHT22;38053;53.100;6.078;2024-02-15T13:19:20;12.30;99.90
52044;DHT22;38053;53.100;6.078;2024-02-15T13:21:46;12.30;99.90
52044;DHT22;38053;53.100;6.078;2024-02-15T13:24:18;12.30;99.90
52044;DHT22;38053;53.100;6.078;2024-02-15T13:26:44;12.40;99.90
52044;DHT22;38053;53.100;6.078;2024-02-15T13:29:10;12.40;99.90
52044;DHT22;38053;53.100;6.078;2024-02-15T13:31:37;12.40;99.90
52044;DHT22;38053;53.100;6.078;2024-02-15T13:34:18;12.40;99.90
52044;DHT22;38053;53.100;6.078;2024-02-15T13:37:03;12.50;99.90
52044;DHT22;38053;53.100;6.078;2024-02-15T13:39:32;12.50;99.90
52044;DHT22;38053;53.100;6.078;2024-02-15T13:42:07;12.50;99.90
52044;DHT22;38053;53.100;6.078;2024-02-15T13:44:33;12.50;99.90
52044;DHT22;38053;53.100;6.078;2024-02-15T13:47:00;12.40;99.90
52044;DHT22;38053;53.100;6.078;2024-02-15T13:49:25;12.40;99.90
52044;DHT22;38053;53.100;6.078;2024-02-15T13:52:09;12.50;99.90
52044;DHT22;38053;53.100;6.078;2024-02-15T13:54:36;12.50;99.90
52044;DHT22;38053;53.100;6.078;2024-02-15T13:57:06;12.50;99.90
52044;DHT22;38053;53.100;6.078;2024-02-15T13:59:32;12.50;99.90
52044;DHT22;38053;53.100;6.078;2024-02-15T14:01:59;12.50;99.90
52044;DHT22;38053;53.100;6.078;2024-02-15T14:04:25;12.50;99.90
52044;DHT22;38053;53.100;6.078;2024-02-15T14:06:53;12.50;99.90
52044;DHT22;38053;53.100;6.078;2024-02-15T14:09:19;12.60;99.90
52044;DHT22;38053;53.100;6.078;2024-02-15T14:12:02;12.60;99.90
52044;DHT22;38053;53.100;6.078;2024-02-15T14:14:51;12.60;99.90
52044;DHT22;38053;53.100;6.078;2024-02-15T14:17:25;12.70;99.90
52044;DHT22;38053;53.100;6.078;2024-02-15T14:19:51;12.60;99.90
52044;DHT22;38053;53.100;6.078;2024-02-15T14:22:16;12.70;99.90
52044;DHT22;38053;53.100;6.078;2024-02-15T14:24:43;12.60;99.90
52044;DHT22;38053;53.100;6.078;2024-02-15T14:27:11;12.70;99.90
52044;DHT22;38053;53.100;6.078;2024-02-15T14:29:40;12.70;99.90
52044;DHT22;38053;53.100;6.078;2024-02-15T14:32:25;12.80;99.90
52044;DHT22;38053;53.100;6.078;2024-02-15T14:35:10;12.80;99.90
52044;DHT22;38053;53.100;6.078;2024-02-15T14:37:37;12.80;99.90
52044;DHT22;38053;53.100;6.078;2024-02-15T14:40:06;12.80;99.90
52044;DHT22;38053;53.100;6.078;2024-02-15T14:42:32;12.80;99.90
52044;DHT22;38053;53.100;6.078;2024-02-15T14:45:02;12.80;99.90
52044;DHT22;38053;53.100;6.078;2024-02-15T14:47:28;12.90;99.90
52044;DHT22;38053;53.100;6.078;2024-02-15T14:49:53;12.90;99.90
52044;DHT22;38053;53.100;6.078;2024-02-15T14:52:19;12.90;99.90
52044;DHT22;38053;53.100;6.078;2024-02-15T14:54:45;12.90;99.90
52044;DHT22;38053;53.100;6.078;2024-02-15T14:57:15;13.00;99.90
52044;DHT22;38053;53.100;6.078;2024-02-15T14:59:41;13.00;99.90
52044;DHT22;38053;53.100;6.078;2024-02-15T15:02:07;13.00;99.90
52044;DHT22;38053;53.100;6.078;2024-02-15T15:04:36;13.00;99.90
52044;DHT22;38053;53.100;6.078;2024-02-15T15:07:22;13.00;99.90
52044;DHT22;38053;53.100;6.078;2024-02-15T15:10:12;13.00;99.90
52044;DHT22;38053;53.100;6.078;2024-02-15T15:12:56;13.00;99.90
52044;DHT22;38053;53.100;6.078;2024-02-15T15:15:28;13.00;99.90
52044;DHT22;38053;53.100;6.078;2024-02-15T15:17:54;13.00;99.90
52044;DHT22;38053;53.100;6.078;2024-02-15T15:20:21;13.00;99.90
52044;DHT22;38053;53.100;6.078;2024-02-15T15:22:46;13.00;99.90
52044;DHT22;38053;53.100;6.078;2024-02-15T15:25:12;13.00;99.90
52044;DHT22;38053;53.100;6.078;2024-02-15T15:28:03;13.00;99.90
52044;DHT22;38053;53.100;6.078;2024-02-15T15:30:50;13.00;99.90
52044;DHT22;38053;53.100;6.078;2024-02-15T15:33:32;13.00;99.90
52044;DHT22;38053;53.100;6.078;2024-02-15T15:36:59;13.00;99.90
52044;DHT22;38053;53.100;6.078;2024-02-15T15:39:51;12.90;99.90
52044;DHT22;38053;53.100;6.078;2024-02-15T15:43:07;12.90;99.90
52044;DHT22;38053;53.100;6.078;2024-02-15T15:53:21;12.90;99.90
52044;DHT22;38053;53.100;6.078;2024-02-15T15:56:01;12.90;99.90
52044;DHT22;38053;53.100;6.078;2024-02-15T16:02:53;12.90;99.90
52044;DHT22;38053;53.100;6.078;2024-02-15T16:05:55;12.80;99.90
52044;DHT22;38053;53.100;6.078;2024-02-15T16:08:20;12.80;99.90
52044;DHT22;38053;53.100;6.078;2024-02-15T16:10:47;12.70;99.90
52044;DHT22;38053;53.100;6.078;2024-02-15T16:13:31;12.70;99.90
52044;DHT22;38053;53.100;6.078;2024-02-15T16:19:12;12.70;99.90
52044;DHT22;38053;53.100;6.078;2024-02-15T16:21:38;12.70;99.90
52044;DHT22;38053;53.100;6.078;2024-02-15T16:24:04;12.60;99.90
52044;DHT22;38053;53.100;6.078;2024-02-15T16:26:29;12.60;99.90
52044;DHT22;38053;53.100;6.078;2024-02-15T16:28:55;12.60;99.90
52044;DHT22;38053;53.100;6.078;2024-02-15T16:31:21;12.50;99.90
52044;DHT22;38053;53.100;6.078;2024-02-15T16:33:46;12.50;99.90
52044;DHT22;38053;53.100;6.078;2024-02-15T16:36:12;12.50;99.90